Terminal Aerodrome Forecast
Issued by NWS Milwaukee/Sullivan, WI

Home | Current Version | Previous Version | Text Only | Print | Product List | Glossary On
Versions: 1 2 3 4 5 6 7 8 9 10 11 12 13 14 15 16 17 18 19 20 21 22 23
000
FTUS43 KMKX 201148
TAFMSN
TAF
KMSN 201148Z 2012/2112 16012KT P6SM BKN150
     FM202000 19011G20KT P6SM BKN120
     FM202200 19009KT P6SM VCTS BKN070CB
     FM210000 20006KT P6SM SHRA VCTS BKN050CB
     FM210200 12004KT P6SM VCTS BKN060CB
     FM210600 VRB03KT P6SM BKN050
     FM210900 VRB03KT P6SM BKN025=

USA.gov is the U.S. government's official web portal to all federal, state and local government web resources and services.